Time;durP1;ratioP1;P1;durP2;ratioP2;P2;SDS_P1;SDS_P2;PMS_P1;PMS_P2;Temp;Humidity;BMP_temperature;BMP_pressure;BME280_temperature;BME280_humidity;BME280_pressure;Samples;Min_cycle;Max_cycle;Signal;HPM_P1;HPM_P2
2021/01/02 00:02:24;;;;;;;6.13;3.40;;;2.40;99.90;;;;;;5033512;28;20693;-75
2021/01/02 00:04:50;;;;;;;3.93;2.67;;;2.40;99.90;;;;;;5020498;28;20293;-76
2021/01/02 00:07:22;;;;;;;5.83;3.60;;;2.40;99.90;;;;;;5036372;28;20612;-76
2021/01/02 00:09:54;;;;;;;6.87;3.97;;;2.40;99.90;;;;;;5033584;28;20186;-76
2021/01/02 00:12:43;;;;;;;6.27;3.67;;;2.40;99.90;;;;;;5035675;28;20256;-75
2021/01/02 00:15:49;;;;;;;7.13;3.97;;;2.50;99.90;;;;;;5035259;28;20296;-76
2021/01/02 00:18:35;;;;;;;9.47;4.07;;;2.40;99.90;;;;;;4980437;28;20589;-76
2021/01/02 00:21:12;;;;;;;5.53;3.23;;;2.50;99.90;;;;;;5026779;28;20234;-76
2021/01/02 00:23:53;;;;;;;5.50;3.47;;;2.40;99.90;;;;;;5030094;28;20697;-74
2021/01/02 00:26:46;;;;;;;6.13;3.87;;;2.40;99.90;;;;;;5032165;28;20730;-75
2021/01/02 00:29:20;;;;;;;4.90;3.57;;;2.50;99.90;;;;;;5036508;28;20237;-76
2021/01/02 00:32:07;;;;;;;5.80;3.63;;;2.50;99.90;;;;;;5022363;28;20195;-75
2021/01/02 00:34:51;;;;;;;5.00;3.40;;;2.50;99.90;;;;;;5050321;28;20932;-75
2021/01/02 00:37:30;;;;;;;5.60;3.60;;;2.60;99.90;;;;;;5046486;28;20612;-76
2021/01/02 00:39:59;;;;;;;5.57;3.83;;;2.60;99.90;;;;;;5028782;28;20190;-76
2021/01/02 00:42:25;;;;;;;6.87;4.30;;;2.60;99.90;;;;;;5034942;28;20194;-76
2021/01/02 00:44:57;;;;;;;6.40;3.47;;;2.60;99.90;;;;;;5034707;28;20286;-75
2021/01/02 00:47:27;;;;;;;5.70;3.83;;;2.60;99.90;;;;;;5025833;28;20648;-76
2021/01/02 00:49:54;;;;;;;4.53;3.00;;;2.60;99.90;;;;;;5039565;28;20190;-75
2021/01/02 00:52:29;;;;;;;6.57;4.10;;;2.60;99.90;;;;;;5036020;28;20270;-75
2021/01/02 00:55:22;;;;;;;5.47;3.67;;;2.50;99.90;;;;;;5024498;28;20668;-75
2021/01/02 00:58:26;;;;;;;5.17;3.27;;;2.50;99.90;;;;;;5032416;28;20210;-76
2021/01/02 01:01:04;;;;;;;4.87;3.17;;;2.60;99.90;;;;;;5046868;28;20201;-76
2021/01/02 01:03:53;;;;;;;5.13;3.33;;;2.50;99.90;;;;;;5052971;28;20629;-75
2021/01/02 01:06:21;;;;;;;6.43;3.37;;;2.60;99.90;;;;;;5042492;28;20692;-75
2021/01/02 01:08:52;;;;;;;8.00;3.53;;;2.50;99.90;;;;;;5033610;28;20186;-75
2021/01/02 01:11:20;;;;;;;8.83;4.73;;;2.60;99.90;;;;;;5032110;28;20222;-76
2021/01/02 01:13:53;;;;;;;5.43;3.47;;;2.60;99.90;;;;;;5028218;28;20187;-75
2021/01/02 01:16:25;;;;;;;5.37;3.23;;;2.60;99.90;;;;;;5033021;28;20203;-75
2021/01/02 01:19:01;;;;;;;5.67;3.33;;;2.60;99.90;;;;;;5038019;28;20212;-76
2021/01/02 01:21:29;;;;;;;6.80;4.03;;;2.60;99.90;;;;;;5029188;28;20195;-76
2021/01/02 01:24:38;;;;;;;5.73;3.10;;;2.50;99.90;;;;;;5021833;28;20268;-75
2021/01/02 01:27:10;;;;;;;4.40;3.40;;;2.60;99.90;;;;;;5030178;28;20455;-76
2021/01/02 01:29:50;;;;;;;7.93;3.47;;;2.60;99.90;;;;;;5045436;28;20194;-76
2021/01/02 01:32:23;;;;;;;5.53;3.37;;;2.60;99.90;;;;;;5025773;28;20300;-75
2021/01/02 01:34:56;;;;;;;5.40;3.23;;;2.60;99.90;;;;;;5028198;28;20190;-76
2021/01/02 01:37:26;;;;;;;6.90;3.40;;;2.50;99.90;;;;;;5037121;28;20468;-74
2021/01/02 01:39:52;;;;;;;5.03;2.93;;;2.50;99.90;;;;;;5039414;28;20221;-74
2021/01/02 01:42:21;;;;;;;4.37;3.30;;;2.50;99.90;;;;;;5026543;28;20210;-74
2021/01/02 01:45:06;;;;;;;4.77;3.27;;;2.50;99.90;;;;;;5031166;28;20187;-73
2021/01/02 01:47:40;;;;;;;3.70;2.90;;;2.50;99.90;;;;;;5027046;28;20236;-75
2021/01/02 01:50:15;;;;;;;5.63;3.57;;;2.50;99.90;;;;;;5028693;28;20538;-76
2021/01/02 01:53:21;;;;;;;4.50;2.83;;;2.50;99.90;;;;;;5026583;28;20376;-76
2021/01/02 01:56:03;;;;;;;4.50;2.97;;;2.50;99.90;;;;;;5029546;28;20225;-76
2021/01/02 01:58:47;;;;;;;5.00;3.17;;;2.50;99.90;;;;;;5020873;28;20213;-75
2021/01/02 02:01:20;;;;;;;5.17;3.73;;;2.50;99.90;;;;;;5033535;28;20258;-76
2021/01/02 02:04:07;;;;;;;4.23;3.33;;;2.50;99.90;;;;;;5026710;28;20236;-76
2021/01/02 02:06:36;;;;;;;4.93;2.67;;;2.40;99.90;;;;;;5024451;28;20214;-76
2021/01/02 02:09:03;;;;;;;4.80;2.63;;;2.40;99.90;;;;;;5029713;28;20198;-76
2021/01/02 02:11:42;;;;;;;5.00;3.63;;;2.40;99.90;;;;;;5029231;28;20187;-76
2021/01/02 02:14:13;;;;;;;4.50;3.13;;;2.40;99.90;;;;;;5024935;28;20185;-76
2021/01/02 02:16:57;;;;;;;6.03;3.00;;;2.40;99.90;;;;;;5021876;28;20218;-76
2021/01/02 02:19:54;;;;;;;6.20;3.80;;;2.40;99.90;;;;;;5031890;28;20213;-75
2021/01/02 02:22:23;;;;;;;6.70;3.43;;;2.40;99.90;;;;;;5031192;28;20183;-75
2021/01/02 02:24:51;;;;;;;4.20;2.73;;;2.40;99.90;;;;;;5029170;28;20266;-74
2021/01/02 02:27:28;;;;;;;3.97;2.70;;;2.30;99.90;;;;;;5028038;28;20501;-76
2021/01/02 02:30:25;;;;;;;4.63;2.77;;;2.40;99.90;;;;;;5023090;28;20193;-76
2021/01/02 02:32:50;;;;;;;3.47;2.17;;;2.40;99.90;;;;;;5026837;28;20208;-75
2021/01/02 02:35:21;;;;;;;5.20;3.43;;;2.30;99.90;;;;;;5028821;28;20680;-76
2021/01/02 02:37:49;;;;;;;4.67;3.00;;;2.30;99.90;;;;;;5031827;28;20194;-74
2021/01/02 02:40:18;;;;;;;5.97;4.13;;;2.40;99.90;;;;;;5032088;28;20198;-76
2021/01/02 02:43:03;;;;;;;6.13;3.83;;;2.40;99.90;;;;;;5035890;28;20227;-76
2021/01/02 02:45:30;;;;;;;4.97;3.27;;;2.40;99.90;;;;;;5022775;28;20304;-76
2021/01/02 02:47:59;;;;;;;3.17;2.73;;;2.40;99.90;;;;;;5042967;28;20603;-75
2021/01/02 02:50:26;;;;;;;4.63;2.80;;;2.40;99.90;;;;;;5033746;28;20208;-76
2021/01/02 02:53:06;;;;;;;4.43;3.43;;;2.40;99.90;;;;;;5032227;28;20706;-75
2021/01/02 02:55:35;;;;;;;4.03;2.37;;;2.40;99.90;;;;;;5042045;28;20226;-75
2021/01/02 02:58:02;;;;;;;5.97;2.93;;;2.40;99.90;;;;;;5025874;28;20214;-74
2021/01/02 03:00:28;;;;;;;8.43;3.70;;;2.40;99.90;;;;;;5037819;28;20194;-74
2021/01/02 03:02:54;;;;;;;4.37;2.63;;;2.40;99.90;;;;;;5037862;28;20195;-75
2021/01/02 03:05:19;;;;;;;4.20;3.17;;;2.40;99.90;;;;;;5028657;28;20642;-75
2021/01/02 03:07:47;;;;;;;4.87;3.40;;;2.40;99.90;;;;;;5031107;28;20190;-76
2021/01/02 03:10:14;;;;;;;4.90;3.80;;;2.40;99.90;;;;;;5026106;28;20191;-75
2021/01/02 03:12:44;;;;;;;4.60;3.43;;;2.40;99.90;;;;;;5041815;28;20920;-76
2021/01/02 03:15:12;;;;;;;4.23;2.63;;;2.40;99.90;;;;;;5037413;28;20210;-76
2021/01/02 03:17:42;;;;;;;4.40;2.77;;;2.40;99.90;;;;;;5030408;28;20738;-75
2021/01/02 03:20:09;;;;;;;3.77;2.43;;;2.40;99.90;;;;;;5037280;28;20182;-75
2021/01/02 03:22:35;;;;;;;5.43;3.60;;;2.40;99.90;;;;;;5030553;28;20269;-75
2021/01/02 03:25:01;;;;;;;6.93;3.67;;;2.40;99.90;;;;;;5035605;28;20893;-76
2021/01/02 03:27:26;;;;;;;5.23;3.23;;;2.40;99.90;;;;;;5032274;28;20729;-76
2021/01/02 03:29:52;;;;;;;6.83;3.87;;;2.40;99.90;;;;;;5032002;28;20260;-75
2021/01/02 03:32:17;;;;;;;6.50;3.17;;;2.40;99.90;;;;;;5029570;28;20293;-76
2021/01/02 03:34:43;;;;;;;4.67;3.20;;;2.40;99.90;;;;;;5032556;28;20563;-76
2021/01/02 03:37:09;;;;;;;5.43;3.33;;;2.40;99.90;;;;;;5026794;28;20210;-76
2021/01/02 03:39:34;;;;;;;4.47;2.97;;;2.40;99.90;;;;;;5032011;28;20753;-75
2021/01/02 03:42:00;;;;;;;5.13;3.07;;;2.40;99.90;;;;;;5035050;28;20186;-75
2021/01/02 03:44:25;;;;;;;4.67;3.70;;;2.40;99.90;;;;;;5031074;28;20653;-76
2021/01/02 03:46:51;;;;;;;5.53;3.37;;;2.40;99.90;;;;;;5033226;28;20294;-75
2021/01/02 03:49:16;;;;;;;4.47;3.40;;;2.40;99.90;;;;;;5034855;28;20222;-76
2021/01/02 03:51:42;;;;;;;4.23;3.13;;;2.40;99.90;;;;;;5024547;28;20199;-75
2021/01/02 03:54:08;;;;;;;4.13;2.87;;;2.40;99.90;;;;;;5042601;28;20252;-76
2021/01/02 03:56:33;;;;;;;5.43;2.67;;;2.40;99.90;;;;;;5056240;28;20248;-75
2021/01/02 03:58:59;;;;;;;7.17;3.53;;;2.30;99.90;;;;;;5045515;28;20797;-76
2021/01/02 04:01:24;;;;;;;3.97;2.90;;;2.30;99.90;;;;;;5030849;28;20191;-75
2021/01/02 04:03:50;;;;;;;5.00;3.53;;;2.30;99.90;;;;;;5034104;28;20542;-76
2021/01/02 04:06:23;;;;;;;5.00;3.23;;;2.30;99.90;;;;;;5034857;28;20252;-76
2021/01/02 04:08:49;;;;;;;5.53;3.40;;;2.20;99.90;;;;;;5036748;28;20189;-75
2021/01/02 04:11:14;;;;;;;4.97;2.90;;;2.20;99.90;;;;;;5035006;28;20195;-75
2021/01/02 04:13:40;;;;;;;5.80;3.10;;;2.20;99.90;;;;;;5034235;28;20191;-76
2021/01/02 04:16:05;;;;;;;5.97;2.87;;;2.20;99.90;;;;;;5038090;28;20249;-76
2021/01/02 04:18:31;;;;;;;6.37;3.43;;;2.20;99.90;;;;;;5038272;28;20206;-75
2021/01/02 04:20:56;;;;;;;4.37;3.10;;;2.20;99.90;;;;;;5036121;28;20197;-75
2021/01/02 04:23:22;;;;;;;7.13;4.00;;;2.10;99.90;;;;;;5036332;28;20238;-75
2021/01/02 04:25:48;;;;;;;6.23;3.60;;;2.10;99.90;;;;;;5034748;28;20214;-74
2021/01/02 04:28:13;;;;;;;5.60;3.27;;;2.10;99.90;;;;;;5035801;28;20201;-75
2021/01/02 04:30:39;;;;;;;4.17;3.40;;;2.10;99.90;;;;;;5035095;28;20186;-75
2021/01/02 04:33:04;;;;;;;6.17;3.00;;;2.10;99.90;;;;;;5035904;28;20252;-75
2021/01/02 04:35:30;;;;;;;5.77;3.43;;;2.10;99.90;;;;;;5038844;28;20237;-75
2021/01/02 04:37:56;;;;;;;5.40;4.03;;;2.10;99.90;;;;;;5033952;28;20485;-75
2021/01/02 04:40:21;;;;;;;4.93;2.90;;;2.00;99.90;;;;;;5032579;28;20191;-75
2021/01/02 04:42:48;;;;;;;5.73;3.27;;;2.00;99.90;;;;;;5035434;28;20274;-75
2021/01/02 04:45:14;;;;;;;3.17;2.60;;;2.00;99.90;;;;;;5036352;28;20202;-75
2021/01/02 04:47:45;;;;;;;4.87;3.87;;;2.00;99.90;;;;;;5034601;28;20237;-75
2021/01/02 04:50:10;;;;;;;5.03;3.40;;;2.00;99.90;;;;;;5028154;28;20190;-76
2021/01/02 04:52:36;;;;;;;6.10;3.87;;;2.00;99.90;;;;;;5024931;28;20198;-76
2021/01/02 04:55:06;;;;;;;5.60;3.27;;;2.00;99.90;;;;;;5024338;28;20289;-75
2021/01/02 04:57:37;;;;;;;6.43;3.10;;;2.00;99.90;;;;;;5022810;28;20201;-75
2021/01/02 05:00:09;;;;;;;4.53;3.13;;;2.00;99.90;;;;;;5031950;28;20182;-75
2021/01/02 05:02:38;;;;;;;6.17;4.13;;;2.10;99.90;;;;;;5037984;28;20705;-75
2021/01/02 05:05:06;;;;;;;5.50;3.97;;;2.10;99.90;;;;;;5039269;28;20683;-75
2021/01/02 05:07:32;;;;;;;4.70;3.40;;;2.10;99.90;;;;;;5032548;28;20651;-76
2021/01/02 05:09:58;;;;;;;4.10;3.30;;;2.10;99.90;;;;;;5028211;28;20233;-75
2021/01/02 05:12:34;;;;;;;6.23;3.97;;;2.20;99.90;;;;;;5030669;28;20187;-75
2021/01/02 05:15:02;;;;;;;4.67;3.27;;;2.20;99.90;;;;;;5025387;28;20281;-75
2021/01/02 05:17:28;;;;;;;4.90;3.27;;;2.10;99.90;;;;;;5028253;28;20185;-75
2021/01/02 05:20:08;;;;;;;6.17;4.50;;;2.10;99.90;;;;;;5033259;28;20210;-76
2021/01/02 05:22:34;;;;;;;4.13;3.13;;;2.10;99.90;;;;;;5021546;28;20201;-75
2021/01/02 05:25:14;;;;;;;6.47;3.20;;;2.10;99.90;;;;;;5032950;28;20191;-75
2021/01/02 05:27:46;;;;;;;4.27;3.17;;;2.10;99.90;;;;;;5021410;28;20194;-74
2021/01/02 05:30:34;;;;;;;3.90;3.03;;;2.10;99.90;;;;;;5031133;28;20175;-75
2021/01/02 05:33:03;;;;;;;3.93;2.90;;;2.10;99.90;;;;;;5034612;28;20214;-74
2021/01/02 05:35:35;;;;;;;3.80;3.03;;;2.10;99.90;;;;;;5033717;28;20412;-74
2021/01/02 05:38:20;;;;;;;4.43;3.40;;;2.10;99.90;;;;;;5030872;28;20215;-74
2021/01/02 05:40:56;;;;;;;4.10;2.53;;;2.20;99.90;;;;;;5028987;28;20789;-75
2021/01/02 05:43:24;;;;;;;4.77;3.17;;;2.20;99.90;;;;;;5044514;28;20192;-75
2021/01/02 05:45:50;;;;;;;4.10;2.30;;;2.30;99.90;;;;;;5028915;28;20264;-75
2021/01/02 05:48:22;;;;;;;3.97;3.30;;;2.30;99.90;;;;;;5039382;28;20193;-74
2021/01/02 05:50:59;;;;;;;4.80;3.23;;;2.30;99.90;;;;;;5022250;28;20187;-74
2021/01/02 05:53:36;;;;;;;4.83;3.80;;;2.30;99.90;;;;;;5030513;28;20523;-75
2021/01/02 05:56:07;;;;;;;4.60;3.83;;;2.20;99.90;;;;;;5034893;28;20580;-75
2021/01/02 05:58:54;;;;;;;5.03;3.23;;;2.40;99.90;;;;;;5028149;28;20621;-75
2021/01/02 06:01:20;;;;;;;4.47;3.40;;;2.40;99.90;;;;;;5034977;28;20272;-75
2021/01/02 06:03:48;;;;;;;4.57;3.57;;;2.40;99.90;;;;;;5027081;28;20257;-74
2021/01/02 06:06:15;;;;;;;3.03;2.70;;;2.40;99.90;;;;;;5028862;28;20198;-75
2021/01/02 06:08:46;;;;;;;3.73;2.73;;;2.40;99.90;;;;;;5025515;28;20182;-75
2021/01/02 06:11:22;;;;;;;6.30;2.93;;;2.40;99.90;;;;;;5030604;28;20272;-75
2021/01/02 06:13:53;;;;;;;5.90;4.37;;;2.40;99.90;;;;;;5020738;28;20579;-75
2021/01/02 06:16:19;;;;;;;4.60;3.30;;;2.40;99.90;;;;;;5034919;28;20212;-75
2021/01/02 06:18:46;;;;;;;4.57;3.43;;;2.30;99.90;;;;;;5043285;28;20245;-74
2021/01/02 06:21:14;;;;;;;4.30;2.90;;;2.30;99.90;;;;;;5038647;28;20252;-76
2021/01/02 06:23:41;;;;;;;3.73;2.67;;;2.30;99.90;;;;;;5038950;28;20205;-75
2021/01/02 06:26:09;;;;;;;5.40;3.80;;;2.20;99.90;;;;;;5027418;28;20480;-75
2021/01/02 06:28:36;;;;;;;4.37;2.63;;;2.20;99.90;;;;;;5028499;28;20191;-76
2021/01/02 06:31:05;;;;;;;5.57;4.40;;;2.10;99.90;;;;;;5053392;28;20596;-75
2021/01/02 06:33:31;;;;;;;8.53;4.17;;;2.10;99.90;;;;;;5028465;28;20190;-75
2021/01/02 06:35:57;;;;;;;5.77;3.27;;;2.10;99.90;;;;;;5025849;28;20691;-74
2021/01/02 06:38:24;;;;;;;5.57;3.47;;;2.10;99.90;;;;;;5034381;28;20217;-75
2021/01/02 06:40:52;;;;;;;4.03;2.67;;;2.00;99.90;;;;;;5032640;28;20186;-74
2021/01/02 06:43:20;;;;;;;5.10;3.47;;;2.00;99.90;;;;;;5032309;28;20289;-74
2021/01/02 06:45:57;;;;;;;5.63;3.43;;;2.00;99.90;;;;;;5030269;28;20216;-75
2021/01/02 06:48:24;;;;;;;3.77;3.07;;;1.90;99.90;;;;;;5043240;28;20197;-76
2021/01/02 06:50:59;;;;;;;7.37;4.17;;;2.00;99.90;;;;;;5032957;28;20178;-74
2021/01/02 06:53:34;;;;;;;5.40;3.10;;;1.90;99.90;;;;;;5035765;28;20594;-75
2021/01/02 06:56:16;;;;;;;6.27;3.10;;;1.90;99.90;;;;;;5036464;28;20214;-75
2021/01/02 06:58:49;;;;;;;5.67;3.53;;;2.00;99.90;;;;;;5025287;28;20236;-76
2021/01/02 07:01:15;;;;;;;3.33;2.63;;;2.00;99.90;;;;;;5035030;28;20669;-75
2021/01/02 07:03:41;;;;;;;4.30;3.23;;;2.00;99.90;;;;;;5038401;28;20190;-75
2021/01/02 07:06:22;;;;;;;7.10;3.60;;;2.00;99.90;;;;;;5051897;28;20695;-75
2021/01/02 07:08:50;;;;;;;5.03;3.17;;;2.00;99.90;;;;;;5052635;28;20249;-75
2021/01/02 07:11:35;;;;;;;6.40;3.97;;;1.90;99.90;;;;;;5034071;28;20274;-75
2021/01/02 07:14:09;;;;;;;6.20;3.87;;;1.90;99.90;;;;;;5032772;28;20533;-76
2021/01/02 07:16:53;;;;;;;6.23;3.70;;;1.90;99.90;;;;;;5029873;28;20679;-76
2021/01/02 07:19:31;;;;;;;5.43;3.40;;;1.90;99.90;;;;;;5029890;28;20222;-76
2021/01/02 07:22:16;;;;;;;4.17;2.90;;;1.90;99.90;;;;;;5033022;28;20185;-76
2021/01/02 07:24:50;;;;;;;5.00;3.17;;;1.90;99.90;;;;;;5027305;28;20817;-75
2021/01/02 07:27:24;;;;;;;4.87;3.60;;;1.90;99.90;;;;;;5035615;28;20189;-76
2021/01/02 07:29:55;;;;;;;4.33;3.27;;;1.90;99.90;;;;;;5036913;28;20218;-75
2021/01/02 07:32:22;;;;;;;4.63;3.30;;;1.90;99.90;;;;;;5038266;28;20194;-75
2021/01/02 07:34:54;;;;;;;4.17;3.53;;;1.90;99.90;;;;;;5036413;28;20782;-75
2021/01/02 07:37:25;;;;;;;4.83;3.63;;;1.90;99.90;;;;;;5037126;28;20198;-75
2021/01/02 07:40:05;;;;;;;4.10;2.57;;;2.00;99.90;;;;;;5035964;28;20207;-74
2021/01/02 07:42:33;;;;;;;6.00;3.70;;;2.00;99.90;;;;;;5036419;28;20281;-72
2021/01/02 07:45:12;;;;;;;4.80;3.00;;;2.00;99.90;;;;;;5051604;28;20188;-76
2021/01/02 07:47:59;;;;;;;6.97;4.77;;;2.00;99.90;;;;;;5037574;28;20185;-76
2021/01/02 07:50:27;;;;;;;4.70;2.87;;;2.00;99.90;;;;;;5038599;28;20178;-76
2021/01/02 07:52:57;;;;;;;5.67;4.23;;;2.00;99.90;;;;;;5036755;28;20183;-75
2021/01/02 07:55:24;;;;;;;4.73;3.17;;;2.10;99.90;;;;;;5037547;28;20580;-76
2021/01/02 07:57:50;;;;;;;7.00;3.67;;;2.10;99.90;;;;;;5034398;28;20210;-77
2021/01/02 08:00:17;;;;;;;4.00;3.10;;;2.10;99.90;;;;;;5036888;28;20206;-76
2021/01/02 08:02:43;;;;;;;5.20;3.33;;;2.10;99.90;;;;;;5037473;28;20277;-76
2021/01/02 08:05:29;;;;;;;4.93;3.30;;;2.20;99.90;;;;;;5037055;28;20277;-75
2021/01/02 08:08:02;;;;;;;4.63;3.57;;;2.20;99.90;;;;;;5037037;28;20233;-77
2021/01/02 08:10:29;;;;;;;5.63;3.10;;;2.20;99.90;;;;;;5035491;28;20602;-75
2021/01/02 08:12:57;;;;;;;5.63;3.60;;;2.20;99.90;;;;;;5034128;28;20639;-76
2021/01/02 08:15:31;;;;;;;6.20;3.67;;;2.30;99.90;;;;;;5035281;28;20890;-76
2021/01/02 08:18:09;;;;;;;6.37;3.90;;;2.30;99.90;;;;;;5035097;28;20780;-76
2021/01/02 08:20:36;;;;;;;5.73;3.57;;;2.30;99.90;;;;;;5034042;28;20669;-75
2021/01/02 08:23:13;;;;;;;5.43;3.67;;;2.40;99.90;;;;;;5036383;28;20185;-77
2021/01/02 08:25:39;;;;;;;5.03;3.50;;;2.40;99.90;;;;;;5043045;28;21000;-73
2021/01/02 08:28:06;;;;;;;4.50;3.13;;;2.50;99.90;;;;;;5035290;28;20239;-76
2021/01/02 08:30:32;;;;;;;4.30;3.00;;;2.50;99.90;;;;;;5032531;28;20174;-76
2021/01/02 08:32:59;;;;;;;4.47;3.70;;;2.60;99.90;;;;;;5034103;28;20198;-74
2021/01/02 08:35:27;;;;;;;5.80;3.43;;;2.60;99.90;;;;;;5033989;28;20214;-77
2021/01/02 08:38:09;;;;;;;5.33;3.03;;;2.70;99.90;;;;;;5030728;28;20190;-76
2021/01/02 08:40:43;;;;;;;3.47;2.83;;;2.70;99.90;;;;;;5049517;28;20833;-76
2021/01/02 08:43:23;;;;;;;6.00;2.87;;;2.80;99.90;;;;;;5033532;28;20191;-74
2021/01/02 08:45:49;;;;;;;6.17;3.17;;;2.80;99.90;;;;;;5031192;28;20313;-76
2021/01/02 08:48:19;;;;;;;6.40;4.00;;;2.90;99.90;;;;;;5031297;28;20282;-76
2021/01/02 08:50:45;;;;;;;5.70;4.13;;;2.90;99.90;;;;;;5033966;28;20802;-75
2021/01/02 08:53:27;;;;;;;36.77;24.33;;;3.00;99.90;;;;;;5023686;28;20197;-75
2021/01/02 08:55:53;;;;;;;7.33;5.80;;;3.00;99.90;;;;;;5034366;28;20246;-75
2021/01/02 08:58:32;;;;;;;6.67;5.33;;;3.10;99.90;;;;;;5031820;28;20242;-75
2021/01/02 09:00:57;;;;;;;5.03;3.73;;;3.10;99.90;;;;;;5032524;28;20186;-75
2021/01/02 09:03:23;;;;;;;6.80;3.90;;;3.20;99.90;;;;;;5033880;28;20181;-76
2021/01/02 09:05:48;;;;;;;6.40;5.30;;;3.30;99.90;;;;;;5034845;28;20213;-75
2021/01/02 09:08:19;;;;;;;8.53;4.63;;;3.30;99.90;;;;;;5034071;28;20609;-75
2021/01/02 09:10:46;;;;;;;14.23;10.67;;;3.30;99.90;;;;;;5034093;28;20196;-75
2021/01/02 09:13:19;;;;;;;5.97;4.27;;;3.40;99.90;;;;;;5033846;28;20197;-75
2021/01/02 09:15:52;;;;;;;6.10;3.93;;;3.40;99.90;;;;;;5033808;28;20213;-75
2021/01/02 09:18:35;;;;;;;5.30;3.70;;;3.40;99.90;;;;;;5046248;28;20202;-75
2021/01/02 09:21:10;;;;;;;5.63;3.87;;;3.40;99.90;;;;;;5034284;28;20224;-75
2021/01/02 09:23:37;;;;;;;5.53;3.67;;;3.50;99.90;;;;;;5032607;28;20255;-74
2021/01/02 09:26:16;;;;;;;5.03;3.37;;;3.50;99.90;;;;;;5038588;28;20198;-74
2021/01/02 09:28:43;;;;;;;5.77;3.87;;;3.40;99.90;;;;;;5038037;28;20233;-76
2021/01/02 09:31:09;;;;;;;5.43;3.53;;;3.50;99.90;;;;;;5033005;28;20218;-76
2021/01/02 09:33:35;;;;;;;6.60;3.73;;;3.50;99.90;;;;;;5033220;28;20209;-75
2021/01/02 09:36:01;;;;;;;5.57;4.23;;;3.50;99.90;;;;;;5029775;28;20208;-74
2021/01/02 09:38:26;;;;;;;4.73;3.37;;;3.50;99.90;;;;;;5027766;28;20253;-72
2021/01/02 09:40:52;;;;;;;5.67;3.60;;;3.50;99.90;;;;;;5032306;28;20652;-76
2021/01/02 09:43:18;;;;;;;5.10;3.60;;;3.60;99.90;;;;;;5030912;28;20221;-75
2021/01/02 09:45:43;;;;;;;7.27;3.73;;;3.70;99.90;;;;;;5032730;28;20207;-77
2021/01/02 09:48:11;;;;;;;7.53;4.37;;;3.80;99.90;;;;;;5031416;28;20730;-76
2021/01/02 09:50:37;;;;;;;4.60;3.43;;;4.00;99.90;;;;;;5051397;28;20260;-76
2021/01/02 09:53:04;;;;;;;6.17;3.77;;;4.10;99.90;;;;;;5037088;28;20190;-76
2021/01/02 09:55:29;;;;;;;5.83;3.63;;;4.20;99.90;;;;;;5036570;28;20283;-75
2021/01/02 09:57:55;;;;;;;7.27;4.17;;;4.30;99.90;;;;;;5036830;28;20194;-76
2021/01/02 10:00:22;;;;;;;5.47;3.27;;;4.50;99.90;;;;;;5036179;28;20183;-76
2021/01/02 10:02:48;;;;;;;6.00;3.43;;;4.70;99.90;;;;;;5036617;28;20182;-75
2021/01/02 10:05:16;;;;;;;5.83;3.13;;;4.80;99.90;;;;;;5035360;28;21005;-75
2021/01/02 10:07:41;;;;;;;5.73;3.47;;;4.90;99.90;;;;;;5034865;28;20200;-76
2021/01/02 10:10:08;;;;;;;6.10;3.67;;;4.90;99.90;;;;;;5036402;28;20178;-75
2021/01/02 10:12:33;;;;;;;5.13;3.20;;;4.90;99.90;;;;;;5036314;28;20198;-75
2021/01/02 10:14:59;;;;;;;5.03;3.67;;;4.80;99.90;;;;;;5035271;28;20197;-76
2021/01/02 10:17:27;;;;;;;5.13;3.40;;;4.70;99.90;;;;;;5035789;28;20218;-75
2021/01/02 10:19:54;;;;;;;4.47;3.10;;;4.70;99.90;;;;;;5036215;28;20244;-75
2021/01/02 10:22:20;;;;;;;5.17;3.97;;;4.60;99.90;;;;;;5035766;28;20186;-76
2021/01/02 10:24:47;;;;;;;4.93;3.57;;;4.50;99.90;;;;;;5036571;28;20183;-75
2021/01/02 10:27:13;;;;;;;4.87;3.43;;;4.50;99.90;;;;;;5035269;28;20210;-75
2021/01/02 10:29:42;;;;;;;6.70;3.70;;;4.50;99.90;;;;;;5036342;28;20256;-76
2021/01/02 10:32:08;;;;;;;6.60;3.93;;;4.50;99.90;;;;;;5035107;28;20656;-76
2021/01/02 10:34:34;;;;;;;6.07;3.23;;;4.40;99.90;;;;;;5035247;28;20225;-76
2021/01/02 10:36:59;;;;;;;5.40;3.40;;;4.50;99.90;;;;;;5035819;28;20578;-76
2021/01/02 10:39:25;;;;;;;3.50;2.10;;;4.60;99.90;;;;;;5033650;28;20295;-75
2021/01/02 10:41:51;;;;;;;5.63;4.30;;;4.60;99.90;;;;;;5036771;28;20904;-76
2021/01/02 10:44:18;;;;;;;5.13;3.37;;;4.60;99.90;;;;;;5036180;28;20229;-75
2021/01/02 10:46:50;;;;;;;5.40;3.53;;;4.60;99.90;;;;;;5034581;28;20746;-75
2021/01/02 10:49:18;;;;;;;5.60;4.27;;;4.60;99.90;;;;;;5036669;28;20186;-76
2021/01/02 10:51:45;;;;;;;5.70;3.87;;;4.50;99.90;;;;;;5035556;28;20182;-75
2021/01/02 10:54:12;;;;;;;6.00;3.43;;;4.60;99.90;;;;;;5049770;28;20190;-75
2021/01/02 10:56:44;;;;;;;6.07;4.27;;;4.60;99.90;;;;;;5034964;28;20226;-74
2021/01/02 10:59:09;;;;;;;6.80;4.47;;;4.60;99.90;;;;;;5050715;28;20218;-76
2021/01/02 11:01:47;;;;;;;7.70;4.33;;;4.60;99.90;;;;;;5034433;28;20193;-75
2021/01/02 11:04:14;;;;;;;4.83;3.47;;;4.60;99.90;;;;;;5034473;28;20694;-76
2021/01/02 11:06:42;;;;;;;6.20;4.30;;;4.50;99.90;;;;;;5050627;28;20206;-76
2021/01/02 11:09:10;;;;;;;5.60;3.87;;;4.30;99.90;;;;;;5035935;28;20186;-76
2021/01/02 11:11:35;;;;;;;7.90;4.90;;;4.20;99.90;;;;;;5031807;28;20202;-76
2021/01/02 11:14:02;;;;;;;5.53;3.27;;;4.10;99.90;;;;;;5034780;28;20199;-76
2021/01/02 11:16:36;;;;;;;5.43;3.83;;;4.00;99.90;;;;;;5024530;28;20567;-76
2021/01/02 11:19:04;;;;;;;5.20;3.47;;;3.80;99.90;;;;;;5032574;28;20205;-75
2021/01/02 11:21:29;;;;;;;7.87;4.30;;;3.70;99.90;;;;;;5033097;28;20294;-77
2021/01/02 11:23:55;;;;;;;3.93;3.03;;;3.60;99.90;;;;;;5035924;28;20274;-75
2021/01/02 11:26:21;;;;;;;4.73;3.57;;;3.60;99.90;;;;;;5034432;28;20206;-76
2021/01/02 11:28:47;;;;;;;5.20;3.73;;;3.60;99.90;;;;;;5031295;28;20400;-76
2021/01/02 11:31:13;;;;;;;5.13;3.73;;;3.70;99.90;;;;;;5032084;28;20574;-76
2021/01/02 11:33:38;;;;;;;4.70;3.53;;;3.80;99.90;;;;;;5033564;28;20219;-76
2021/01/02 11:36:04;;;;;;;4.00;2.93;;;3.90;99.90;;;;;;5035637;28;20235;-76
2021/01/02 11:38:31;;;;;;;6.10;3.97;;;4.10;99.90;;;;;;5032725;28;20206;-76
2021/01/02 11:40:56;;;;;;;7.17;4.07;;;4.30;99.90;;;;;;5034084;28;20196;-76
2021/01/02 11:43:22;;;;;;;4.27;2.97;;;4.50;99.90;;;;;;5052676;28;20190;-76
2021/01/02 11:45:48;;;;;;;7.60;4.50;;;4.60;99.90;;;;;;5034468;28;20209;-76
2021/01/02 11:48:14;;;;;;;5.57;3.77;;;4.70;99.90;;;;;;5033163;28;20190;-76
2021/01/02 11:50:40;;;;;;;5.33;3.23;;;4.80;99.90;;;;;;5034195;28;20730;-76
2021/01/02 11:53:07;;;;;;;5.60;4.20;;;4.90;99.90;;;;;;5035966;28;20187;-76
2021/01/02 11:55:32;;;;;;;4.50;3.53;;;5.00;99.90;;;;;;5035413;28;20590;-76
2021/01/02 11:57:59;;;;;;;3.93;2.80;;;5.00;99.90;;;;;;5035553;28;20190;-75
2021/01/02 12:00:25;;;;;;;6.63;4.20;;;5.00;99.90;;;;;;5035104;28;20624;-76
2021/01/02 12:02:50;;;;;;;4.77;3.60;;;5.00;99.90;;;;;;5034791;28;20265;-76
2021/01/02 12:05:16;;;;;;;6.00;4.07;;;5.10;99.90;;;;;;5035645;28;20553;-76
2021/01/02 12:07:42;;;;;;;5.00;3.87;;;5.20;99.90;;;;;;5034384;28;20186;-75
2021/01/02 12:10:08;;;;;;;5.77;4.07;;;5.20;99.90;;;;;;5034573;28;20209;-75
2021/01/02 12:12:34;;;;;;;6.57;3.83;;;5.10;99.90;;;;;;5035309;28;21341;-74
2021/01/02 12:14:59;;;;;;;6.30;3.63;;;5.20;99.90;;;;;;5035409;28;20198;-75
2021/01/02 12:17:26;;;;;;;4.60;3.83;;;5.20;99.90;;;;;;5036447;28;20278;-76
2021/01/02 12:19:51;;;;;;;7.20;3.33;;;5.20;99.90;;;;;;5054032;28;20211;-74
2021/01/02 12:22:17;;;;;;;7.13;4.53;;;5.20;99.90;;;;;;5043364;28;20187;-73
2021/01/02 12:24:43;;;;;;;7.67;4.40;;;5.20;99.90;;;;;;5036120;28;21097;-74
2021/01/02 12:27:10;;;;;;;8.13;4.27;;;5.20;99.90;;;;;;5031062;28;20209;-73
2021/01/02 12:29:37;;;;;;;4.70;3.77;;;5.20;99.90;;;;;;5035379;28;20205;-73
2021/01/02 12:32:07;;;;;;;5.83;3.50;;;5.30;99.90;;;;;;5030227;28;20288;-73
2021/01/02 12:34:35;;;;;;;4.47;3.33;;;5.20;99.90;;;;;;5028604;28;20253;-73
2021/01/02 12:37:12;;;;;;;5.93;3.70;;;5.20;99.90;;;;;;5034187;28;20272;-74
2021/01/02 12:39:39;;;;;;;5.60;3.20;;;5.20;99.90;;;;;;5034923;28;20210;-75
2021/01/02 12:42:06;;;;;;;8.27;4.40;;;5.20;99.90;;;;;;5034783;28;20652;-76
2021/01/02 12:44:31;;;;;;;7.83;3.77;;;5.20;99.90;;;;;;5034970;28;20241;-76
2021/01/02 12:47:06;;;;;;;7.20;3.63;;;5.20;99.90;;;;;;5035141;28;20206;-77
2021/01/02 12:49:34;;;;;;;5.77;4.10;;;5.30;99.90;;;;;;5034349;28;20185;-75
2021/01/02 12:52:03;;;;;;;6.37;4.20;;;5.20;99.90;;;;;;5035712;28;20233;-78
2021/01/02 12:54:29;;;;;;;7.60;4.30;;;5.30;99.90;;;;;;5035880;28;20278;-77
2021/01/02 12:56:56;;;;;;;8.17;4.60;;;5.30;99.90;;;;;;5032008;28;20236;-76
2021/01/02 12:59:32;;;;;;;12.83;7.70;;;5.20;99.90;;;;;;5031639;28;20700;-77
2021/01/02 13:02:00;;;;;;;5.60;3.50;;;5.10;99.90;;;;;;5035872;28;20300;-77
2021/01/02 13:04:27;;;;;;;7.40;4.20;;;5.10;99.90;;;;;;5034292;28;20178;-76
2021/01/02 13:06:55;;;;;;;6.10;3.63;;;5.10;99.90;;;;;;5032145;28;20344;-76
2021/01/02 13:09:21;;;;;;;8.30;5.87;;;5.10;99.90;;;;;;5032631;28;20200;-76
2021/01/02 13:11:49;;;;;;;7.47;5.50;;;5.10;99.90;;;;;;5032695;28;20199;-76
2021/01/02 13:14:16;;;;;;;9.40;5.00;;;5.10;99.90;;;;;;5029597;28;20203;-73
2021/01/02 13:17:00;;;;;;;5.87;3.40;;;5.10;99.90;;;;;;5029336;28;20676;-75